X  Luk Metar data     LZPP Piešťany Airport
Temperatur
86°F Temperatur
66°F Duggpunkt
52% Fugtighed



Vind
3 MPT
5 KM/T
1 M/S
3 KNOB



Stille
N
Nuværende forhold

For det meste spredte skyer For det meste spredte skyer
Tryk 1011.85 (hPa) - 29.88 (inHg)
Sigt 6 (mil) - 9.7 (km)
Lufthavn
Lufthavnskode LZPP

Lokation: Piešťany Airport
Afstand: 31 (mi)

Metar:
LZPP 141230Z VRB03KT 9999 SCT046 30/19 Q1012

Tid: 14-07-2024 14:30 CEST